createdAt,value
2023-05-20T00:01:30.117Z,50.80
2023-05-20T00:03:59.997Z,50.98
2023-05-20T00:06:28.572Z,51.01
2023-05-20T00:08:56.978Z,51.03
2023-05-20T00:11:25.369Z,51.15
2023-05-20T00:13:53.752Z,51.07
2023-05-20T00:16:22.169Z,51.13
2023-05-20T00:18:50.685Z,51.19
2023-05-20T00:21:20.590Z,51.32
2023-05-20T00:23:48.966Z,51.32
2023-05-20T00:26:17.555Z,51.33
2023-05-20T00:28:45.991Z,51.56
2023-05-20T00:31:14.331Z,51.65
2023-05-20T00:33:42.807Z,51.51
2023-05-20T00:36:11.165Z,51.55
2023-05-20T00:38:40.850Z,51.61
2023-05-20T00:41:09.247Z,51.66
2023-05-20T00:43:37.644Z,51.79
2023-05-20T00:46:06.595Z,51.69
2023-05-20T00:48:42.238Z,51.77
2023-05-20T00:51:11.845Z,51.74
2023-05-20T00:53:42.655Z,52.04
2023-05-20T00:56:11.578Z,52.05
2023-05-20T00:58:41.077Z,52.04
2023-05-20T01:01:09.470Z,52.00
2023-05-20T01:03:38.181Z,51.81
2023-05-20T01:06:06.731Z,51.96
2023-05-20T01:08:35.813Z,52.01
2023-05-20T01:11:12.373Z,51.98
2023-05-20T01:13:47.150Z,52.18
2023-05-20T01:16:19.019Z,52.10
2023-05-20T01:18:49.685Z,52.11
2023-05-20T01:21:19.786Z,52.37
2023-05-20T01:23:49.817Z,52.33
2023-05-20T01:26:19.079Z,52.41
2023-05-20T01:28:47.516Z,52.44
2023-05-20T01:31:21.156Z,52.41
2023-05-20T01:33:55.698Z,52.45
2023-05-20T01:36:25.094Z,52.49
2023-05-20T01:38:56.018Z,52.37
2023-05-20T01:41:27.791Z,52.44
2023-05-20T01:43:57.182Z,52.53
2023-05-20T01:46:25.742Z,52.44
2023-05-20T01:48:54.336Z,52.48
2023-05-20T01:51:23.306Z,52.66
2023-05-20T01:53:51.752Z,52.58
2023-05-20T01:56:22.208Z,52.68
2023-05-20T01:58:50.615Z,52.50
2023-05-20T02:01:19.030Z,52.69
2023-05-20T02:03:47.499Z,52.74
2023-05-20T02:06:16.007Z,52.80
2023-05-20T02:08:44.369Z,52.71
2023-05-20T02:11:12.786Z,52.74
2023-05-20T02:13:42.498Z,52.85
2023-05-20T02:16:10.932Z,52.67
2023-05-20T02:18:39.405Z,52.76
2023-05-20T02:21:08.203Z,52.65
2023-05-20T02:23:36.625Z,52.74
2023-05-20T02:26:05.200Z,52.70
2023-05-20T02:28:33.656Z,52.91
2023-05-20T02:31:03.575Z,52.85
2023-05-20T02:33:32.028Z,52.88
2023-05-20T02:36:00.436Z,53.01
2023-05-20T02:38:29.193Z,52.98
2023-05-20T02:40:59.070Z,53.01
2023-05-20T02:43:27.498Z,53.01
2023-05-20T02:45:56.546Z,52.90
2023-05-20T02:48:26.433Z,53.07
2023-05-20T02:50:54.880Z,53.04
2023-05-20T02:53:23.339Z,53.07
2023-05-20T02:55:51.806Z,53.01
2023-05-20T02:58:26.487Z,52.94
2023-05-20T03:00:54.914Z,53.22
2023-05-20T03:03:23.322Z,53.21
2023-05-20T03:05:53.068Z,52.94
2023-05-20T03:08:23.637Z,53.25
2023-05-20T03:10:52.233Z,53.25
2023-05-20T03:13:20.649Z,53.28
2023-05-20T03:15:49.119Z,53.25
2023-05-20T03:18:17.530Z,53.20
2023-05-20T03:20:47.833Z,53.41
2023-05-20T03:23:17.581Z,53.36
2023-05-20T03:25:46.317Z,53.43
2023-05-20T03:28:14.802Z,53.28
2023-05-20T03:30:43.322Z,53.46
2023-05-20T03:33:12.023Z,53.33
2023-05-20T03:35:40.413Z,53.33
2023-05-20T03:38:08.874Z,53.36
2023-05-20T03:40:38.659Z,53.56
2023-05-20T03:43:06.987Z,53.44
2023-05-20T03:45:35.701Z,53.29
2023-05-20T03:48:04.687Z,53.39
2023-05-20T03:50:33.153Z,53.31
2023-05-20T03:53:01.573Z,53.41
2023-05-20T03:55:29.983Z,53.39
2023-05-20T03:58:00.587Z,53.38
2023-05-20T04:00:31.498Z,53.44
2023-05-20T04:03:00.712Z,53.30
2023-05-20T04:05:29.176Z,53.36
2023-05-20T04:07:58.059Z,53.24
2023-05-20T04:10:26.440Z,53.30
2023-05-20T04:12:54.979Z,53.19
2023-05-20T04:15:25.282Z,53.24
2023-05-20T04:17:54.432Z,53.18
2023-05-20T04:20:24.404Z,53.38
2023-05-20T04:22:54.124Z,53.18
2023-05-20T04:25:22.471Z,53.28
2023-05-20T04:27:51.035Z,53.15
2023-05-20T04:30:21.854Z,53.18
2023-05-20T04:32:52.112Z,53.15
2023-05-20T04:35:20.967Z,53.16
2023-05-20T04:37:49.315Z,53.00
2023-05-20T04:40:19.159Z,52.94
2023-05-20T04:42:47.587Z,52.87
2023-05-20T04:45:16.218Z,52.86
2023-05-20T04:47:46.168Z,53.03
2023-05-20T04:50:16.057Z,52.81
2023-05-20T04:52:46.037Z,52.97
2023-05-20T04:55:16.013Z,52.89
2023-05-20T04:57:44.391Z,52.62
2023-05-20T05:00:14.478Z,52.04
2023-05-20T05:02:43.358Z,51.53
2023-05-20T05:05:11.942Z,51.24
2023-05-20T05:07:41.736Z,50.87
2023-05-20T05:10:11.501Z,50.20
2023-05-20T05:12:39.894Z,49.76
2023-05-20T05:15:10.236Z,48.90
2023-05-20T05:17:38.687Z,48.60
2023-05-20T05:20:09.659Z,48.63
2023-05-20T05:22:39.792Z,48.69
2023-05-20T05:25:11.494Z,48.63
2023-05-20T05:27:40.604Z,48.38
2023-05-20T05:30:10.779Z,48.43
2023-05-20T05:32:39.632Z,48.99
2023-05-20T05:35:08.792Z,48.97
2023-05-20T05:37:37.199Z,49.01
2023-05-20T05:40:07.084Z,48.66
2023-05-20T05:42:36.884Z,48.97
2023-05-20T05:45:06.255Z,48.78
2023-05-20T05:47:34.706Z,48.31
2023-05-20T05:50:03.104Z,47.64
2023-05-20T05:52:31.507Z,47.64
2023-05-20T05:55:00.068Z,47.23
2023-05-20T05:57:28.487Z,47.39
2023-05-20T05:59:58.275Z,46.64
2023-05-20T06:02:26.830Z,46.41
2023-05-20T06:04:55.566Z,46.65
2023-05-20T06:07:25.130Z,46.55
2023-05-20T06:09:53.588Z,46.11
2023-05-20T06:12:21.960Z,46.13
2023-05-20T06:14:50.551Z,45.95
2023-05-20T06:17:20.315Z,46.01
2023-05-20T06:19:48.864Z,46.32
2023-05-20T06:22:17.284Z,45.65
2023-05-20T06:24:45.726Z,45.55
2023-05-20T06:27:14.236Z,45.71
2023-05-20T06:29:43.831Z,45.77
2023-05-20T06:32:12.424Z,45.47
2023-05-20T06:34:42.708Z,45.36
2023-05-20T06:37:11.490Z,44.90
2023-05-20T06:39:39.887Z,45.01
2023-05-20T06:42:08.302Z,44.70
2023-05-20T06:44:36.752Z,44.51
2023-05-20T06:47:05.370Z,44.34
2023-05-20T06:49:33.722Z,44.16
2023-05-20T06:52:03.438Z,43.92
2023-05-20T06:54:34.209Z,43.86
2023-05-20T06:57:02.653Z,43.88
2023-05-20T06:59:31.175Z,43.74
2023-05-20T07:01:59.625Z,43.68
2023-05-20T07:04:28.000Z,43.89
2023-05-20T07:06:56.388Z,43.76
2023-05-20T07:09:26.220Z,43.75
2023-05-20T07:11:54.630Z,43.50
2023-05-20T07:14:23.007Z,43.41
2023-05-20T07:16:51.413Z,43.06
2023-05-20T07:19:19.826Z,42.79
2023-05-20T07:21:49.779Z,42.65
2023-05-20T07:24:18.412Z,42.30
2023-05-20T07:26:48.168Z,42.12
2023-05-20T07:29:16.564Z,42.14
2023-05-20T07:31:45.008Z,41.98
2023-05-20T07:34:13.515Z,41.71
2023-05-20T07:36:42.032Z,41.81
2023-05-20T07:39:13.444Z,41.34
2023-05-20T07:41:43.498Z,41.16
2023-05-20T07:44:13.475Z,41.16
2023-05-20T07:46:42.769Z,40.70
2023-05-20T07:49:11.183Z,40.78
2023-05-20T07:51:39.617Z,40.57
2023-05-20T07:54:08.031Z,40.29
2023-05-20T07:56:36.556Z,40.11
2023-05-20T07:59:05.058Z,40.07
2023-05-20T08:01:35.037Z,39.50
2023-05-20T08:04:03.993Z,39.62
2023-05-20T08:06:33.195Z,39.49
2023-05-20T08:09:01.896Z,39.18
2023-05-20T08:11:30.346Z,39.13
2023-05-20T08:13:58.733Z,38.42
2023-05-20T08:16:27.192Z,38.04
2023-05-20T08:18:57.035Z,38.17
2023-05-20T08:21:25.500Z,37.87
2023-05-20T08:23:53.905Z,37.98
2023-05-20T08:26:23.130Z,37.88
2023-05-20T08:28:51.564Z,38.05
2023-05-20T08:31:20.950Z,37.57
2023-05-20T08:33:49.364Z,37.50
2023-05-20T08:36:19.474Z,37.56
2023-05-20T08:38:47.917Z,37.07
2023-05-20T08:41:16.760Z,37.03
2023-05-20T08:43:45.861Z,37.16
2023-05-20T08:46:16.248Z,36.93
2023-05-20T08:48:46.271Z,36.63
2023-05-20T08:51:23.761Z,36.08
2023-05-20T08:53:52.948Z,35.86
2023-05-20T08:56:22.069Z,35.37
2023-05-20T08:58:50.678Z,35.64
2023-05-20T09:01:19.128Z,35.41
2023-05-20T09:03:47.598Z,35.64
2023-05-20T09:06:20.877Z,35.62
2023-05-20T09:08:51.904Z,35.44
2023-05-20T09:11:21.823Z,35.41
2023-05-20T09:13:51.959Z,35.75
2023-05-20T09:16:20.430Z,35.62
2023-05-20T09:18:50.020Z,35.65
2023-05-20T09:21:19.834Z,36.22
2023-05-20T09:23:49.917Z,35.96
2023-05-20T09:26:19.688Z,35.71
2023-05-20T09:28:48.266Z,35.90
2023-05-20T09:31:17.199Z,35.59
2023-05-20T09:33:45.790Z,35.28
2023-05-20T09:36:16.791Z,35.59
2023-05-20T09:38:47.672Z,35.59
2023-05-20T09:41:17.009Z,35.61
2023-05-20T09:43:45.931Z,35.13
2023-05-20T09:46:15.097Z,35.35
2023-05-20T09:48:44.180Z,35.33
2023-05-20T09:51:13.962Z,35.02
2023-05-20T09:53:43.294Z,35.09
2023-05-20T09:56:13.523Z,34.92
2023-05-20T09:58:43.533Z,34.97
2023-05-20T10:01:11.986Z,35.18
2023-05-20T10:03:42.624Z,35.46
2023-05-20T10:06:34.257Z,35.73
2023-05-20T10:09:32.903Z,35.84
2023-05-20T10:12:13.360Z,35.76
2023-05-20T10:14:58.009Z,35.37
2023-05-20T10:17:33.332Z,35.27
2023-05-20T10:20:04.573Z,35.61
2023-05-20T10:22:34.436Z,35.42
2023-05-20T10:25:07.914Z,35.73
2023-05-20T10:27:48.374Z,35.37
2023-05-20T10:30:22.022Z,35.39
2023-05-20T10:32:54.638Z,35.41
2023-05-20T10:35:26.447Z,35.06
2023-05-20T10:37:56.787Z,35.24
2023-05-20T10:40:26.847Z,35.16
2023-05-20T10:43:01.168Z,35.21
2023-05-20T10:45:32.786Z,35.05
2023-05-20T10:48:01.305Z,34.71
2023-05-20T10:50:35.439Z,34.40
2023-05-20T10:53:06.954Z,34.08
2023-05-20T10:55:39.440Z,33.73
2023-05-20T10:58:11.304Z,33.09
2023-05-20T11:00:41.043Z,32.53
2023-05-20T11:03:10.542Z,31.99
2023-05-20T11:05:41.580Z,31.75
2023-05-20T11:08:27.201Z,31.01
2023-05-20T11:10:58.477Z,30.46
2023-05-20T11:13:28.451Z,30.08
2023-05-20T11:15:57.607Z,29.57
2023-05-20T11:18:30.269Z,28.79
2023-05-20T11:20:58.759Z,27.94
2023-05-20T11:23:29.037Z,27.28
2023-05-20T11:25:58.822Z,27.02
2023-05-20T11:28:28.605Z,26.73
2023-05-20T11:30:57.012Z,26.55
2023-05-20T11:33:28.030Z,25.85
2023-05-20T11:35:56.542Z,25.48
2023-05-20T11:38:25.685Z,25.52
2023-05-20T11:40:55.966Z,24.68
2023-05-20T11:43:25.632Z,24.82
2023-05-20T11:46:00.380Z,24.72
2023-05-20T11:48:29.050Z,24.53
2023-05-20T11:50:59.407Z,23.66
2023-05-20T11:53:30.306Z,23.78
2023-05-20T11:56:01.286Z,22.71
2023-05-20T11:58:32.231Z,22.72
2023-05-20T12:01:20.439Z,21.63
2023-05-20T12:03:50.989Z,21.82
2023-05-20T12:06:20.317Z,22.01
2023-05-20T12:08:48.771Z,21.36
2023-05-20T12:11:17.190Z,21.50
2023-05-20T12:13:45.620Z,21.71
2023-05-20T12:16:15.698Z,21.59
2023-05-20T12:18:44.229Z,21.32
2023-05-20T12:21:12.745Z,22.01
2023-05-20T12:23:41.094Z,21.75
2023-05-20T12:26:09.548Z,21.10
2023-05-20T12:28:37.886Z,21.26
2023-05-20T12:31:06.413Z,20.58
2023-05-20T12:33:36.169Z,20.30
2023-05-20T12:36:04.848Z,19.67
2023-05-20T12:38:33.587Z,20.02
2023-05-20T12:41:02.098Z,19.68
2023-05-20T12:43:30.528Z,19.57
2023-05-20T12:46:09.798Z,20.22
2023-05-20T12:48:39.512Z,19.85
2023-05-20T12:51:09.584Z,19.88
2023-05-20T12:53:38.050Z,19.96
2023-05-20T12:56:08.062Z,19.43
2023-05-20T12:58:36.575Z,20.13
2023-05-20T13:01:05.073Z,19.73
2023-05-20T13:03:34.888Z,20.17
2023-05-20T13:06:03.606Z,20.14
2023-05-20T13:08:32.035Z,20.40
2023-05-20T13:11:00.462Z,20.74
2023-05-20T13:13:28.866Z,20.42
2023-05-20T13:15:57.577Z,20.82
2023-05-20T13:18:25.953Z,20.33
2023-05-20T13:20:55.742Z,20.57
2023-05-20T13:23:24.137Z,19.63
2023-05-20T13:25:52.552Z,19.59
2023-05-20T13:28:21.557Z,19.32
2023-05-20T13:30:50.093Z,18.56
2023-05-20T13:33:18.490Z,18.24
2023-05-20T13:35:47.656Z,18.21
2023-05-20T13:38:17.664Z,17.97
2023-05-20T13:40:46.113Z,17.76
2023-05-20T13:43:14.550Z,17.79
2023-05-20T13:45:43.510Z,17.61
2023-05-20T13:48:12.279Z,17.69
2023-05-20T13:50:40.695Z,17.48
2023-05-20T13:53:12.502Z,17.73
2023-05-20T13:55:42.549Z,17.55
2023-05-20T13:58:10.992Z,17.83
2023-05-20T14:00:40.079Z,17.74
2023-05-20T14:03:09.377Z,18.23
2023-05-20T14:05:37.892Z,18.51
2023-05-20T14:08:06.833Z,18.23
2023-05-20T14:10:35.559Z,18.14
2023-05-20T14:13:06.765Z,18.29
2023-05-20T14:15:37.351Z,18.61
2023-05-20T14:18:05.968Z,18.90
2023-05-20T14:20:34.668Z,19.50
2023-05-20T14:23:03.142Z,19.70
2023-05-20T14:25:31.572Z,19.82
2023-05-20T14:28:00.003Z,20.03
2023-05-20T14:30:29.876Z,19.68
2023-05-20T14:32:58.371Z,19.91
2023-05-20T14:35:26.909Z,20.12
2023-05-20T14:37:55.310Z,20.71
2023-05-20T14:40:24.115Z,20.56
2023-05-20T14:42:52.545Z,20.16
2023-05-20T14:45:21.889Z,20.62
2023-05-20T14:47:51.819Z,19.99
2023-05-20T14:50:20.241Z,20.35
2023-05-20T14:52:48.644Z,20.32
2023-05-20T14:55:17.501Z,20.78
2023-05-20T14:57:45.943Z,20.08
2023-05-20T15:00:15.548Z,20.13
2023-05-20T15:02:44.017Z,19.35
2023-05-20T15:05:14.000Z,19.54
2023-05-20T15:07:43.519Z,19.02
2023-05-20T15:10:13.332Z,18.65
2023-05-20T15:12:41.716Z,18.57
2023-05-20T15:15:11.863Z,18.16
2023-05-20T15:17:40.578Z,17.65
2023-05-20T15:20:10.784Z,17.41
2023-05-20T15:22:41.477Z,16.89
2023-05-20T15:25:10.562Z,16.43
2023-05-20T15:27:38.918Z,16.26
2023-05-20T15:30:09.436Z,16.25
2023-05-20T15:32:38.047Z,16.41
2023-05-20T15:35:08.096Z,16.61
2023-05-20T15:37:36.675Z,16.89
2023-05-20T15:40:08.580Z,17.40
2023-05-20T15:42:37.175Z,18.10
2023-05-20T15:45:06.282Z,18.43
2023-05-20T15:47:34.775Z,18.88
2023-05-20T15:50:05.272Z,18.98
2023-05-20T15:52:33.643Z,19.23
2023-05-20T15:55:02.440Z,19.48
2023-05-20T15:57:32.193Z,20.10
2023-05-20T16:00:00.636Z,20.40
2023-05-20T16:02:31.453Z,21.06
2023-05-20T16:05:00.774Z,21.18
2023-05-20T16:07:29.325Z,21.41
2023-05-20T16:09:57.856Z,21.69
2023-05-20T16:12:26.264Z,22.40
2023-05-20T16:14:56.174Z,22.33
2023-05-20T16:17:24.698Z,22.51
2023-05-20T16:19:53.303Z,22.69
2023-05-20T16:22:21.744Z,23.38
2023-05-20T16:24:50.201Z,23.19
2023-05-20T16:27:18.565Z,23.44
2023-05-20T16:29:47.386Z,23.92
2023-05-20T16:32:17.261Z,23.68
2023-05-20T16:34:47.470Z,23.59
2023-05-20T16:37:16.269Z,24.16
2023-05-20T16:39:44.708Z,24.43
2023-05-20T16:42:13.095Z,24.57
2023-05-20T16:44:41.567Z,24.61
2023-05-20T16:47:10.436Z,24.68
2023-05-20T16:49:40.571Z,25.05
2023-05-20T16:52:09.209Z,24.84
2023-05-20T16:54:37.741Z,25.44
2023-05-20T16:57:08.142Z,25.47
2023-05-20T16:59:36.596Z,25.63
2023-05-20T17:02:05.382Z,25.75
2023-05-20T17:04:33.815Z,26.04
2023-05-20T17:07:04.401Z,26.24
2023-05-20T17:09:32.827Z,26.40
2023-05-20T17:12:01.244Z,26.45
2023-05-20T17:14:29.723Z,26.58
2023-05-20T17:16:58.293Z,26.70
2023-05-20T17:19:26.823Z,26.87
2023-05-20T17:21:55.292Z,27.01
2023-05-20T17:24:25.138Z,27.05
2023-05-20T17:26:53.685Z,27.24
2023-05-20T17:29:22.088Z,27.62
2023-05-20T17:31:50.530Z,27.42
2023-05-20T17:34:19.182Z,27.56
2023-05-20T17:36:47.766Z,28.06
2023-05-20T17:39:17.018Z,27.79
2023-05-20T17:41:46.891Z,28.18
2023-05-20T17:44:15.333Z,28.29
2023-05-20T17:46:43.932Z,28.47
2023-05-20T17:49:12.616Z,28.69
2023-05-20T17:51:42.411Z,28.81
2023-05-20T17:54:11.134Z,29.07
2023-05-20T17:56:39.721Z,29.21
2023-05-20T17:59:09.559Z,29.42
2023-05-20T18:01:38.087Z,29.40
2023-05-20T18:04:07.256Z,29.65
2023-05-20T18:06:35.980Z,29.96
2023-05-20T18:09:06.009Z,29.77
2023-05-20T18:11:35.272Z,29.91
2023-05-20T18:14:03.979Z,30.14
2023-05-20T18:16:33.858Z,30.70
2023-05-20T18:19:02.974Z,30.45
2023-05-20T18:21:31.485Z,30.77
2023-05-20T18:23:59.870Z,30.77
2023-05-20T18:26:28.749Z,30.85
2023-05-20T18:28:57.203Z,31.56
2023-05-20T18:31:26.319Z,31.82
2023-05-20T18:33:56.159Z,31.49
2023-05-20T18:36:24.614Z,31.58
2023-05-20T18:38:53.012Z,31.81
2023-05-20T18:41:25.098Z,32.11
2023-05-20T18:43:55.634Z,32.59
2023-05-20T18:46:24.315Z,32.81
2023-05-20T18:48:52.742Z,32.78
2023-05-20T18:51:22.591Z,32.81
2023-05-20T18:53:51.282Z,33.02
2023-05-20T18:56:19.681Z,33.65
2023-05-20T18:58:48.082Z,33.42
2023-05-20T19:01:16.576Z,33.83
2023-05-20T19:03:45.099Z,33.60
2023-05-20T19:06:13.989Z,34.15
2023-05-20T19:08:43.915Z,34.05
2023-05-20T19:11:12.319Z,34.36
2023-05-20T19:13:40.679Z,34.78
2023-05-20T19:16:09.573Z,35.22
2023-05-20T19:18:37.927Z,35.32
2023-05-20T19:21:06.478Z,35.73
2023-05-20T19:23:34.978Z,35.77
2023-05-20T19:26:04.829Z,36.43
2023-05-20T19:28:33.304Z,36.63
2023-05-20T19:31:01.876Z,36.81
2023-05-20T19:33:30.437Z,37.13
2023-05-20T19:35:58.963Z,37.44
2023-05-20T19:38:27.380Z,37.80
2023-05-20T19:40:55.809Z,37.77
2023-05-20T19:43:25.669Z,38.21
2023-05-20T19:45:54.122Z,38.38
2023-05-20T19:48:22.652Z,38.61
2023-05-20T19:50:51.129Z,38.58
2023-05-20T19:53:20.960Z,38.97
2023-05-20T19:55:49.503Z,39.22
2023-05-20T19:58:17.953Z,39.30
2023-05-20T20:00:47.768Z,39.47
2023-05-20T20:03:16.136Z,39.73
2023-05-20T20:05:44.774Z,39.85
2023-05-20T20:08:13.170Z,40.06
2023-05-20T20:10:41.715Z,40.29
2023-05-20T20:13:10.203Z,40.34
2023-05-20T20:15:38.777Z,40.40
2023-05-20T20:18:08.771Z,40.71
2023-05-20T20:20:40.132Z,40.79
2023-05-20T20:23:08.967Z,40.85
2023-05-20T20:25:39.771Z,41.21
2023-05-20T20:28:09.373Z,41.36
2023-05-20T20:30:38.413Z,41.41
2023-05-20T20:33:09.703Z,41.67
2023-05-20T20:35:38.684Z,41.70
2023-05-20T20:38:08.846Z,41.67
2023-05-20T20:40:41.811Z,41.84
2023-05-20T20:43:20.433Z,42.06
2023-05-20T20:45:53.137Z,42.24
2023-05-20T20:48:26.907Z,42.33
2023-05-20T20:50:56.463Z,42.32
2023-05-20T20:53:24.870Z,42.63
2023-05-20T20:55:53.260Z,42.47
2023-05-20T20:58:22.775Z,42.91
2023-05-20T21:00:51.268Z,42.82
2023-05-20T21:03:23.915Z,42.90
2023-05-20T21:05:53.939Z,43.02
2023-05-20T21:08:27.673Z,42.95
2023-05-20T21:10:59.429Z,43.16
2023-05-20T21:13:28.317Z,43.28
2023-05-20T21:15:57.022Z,43.60
2023-05-20T21:18:25.426Z,43.49
2023-05-20T21:20:56.428Z,43.34
2023-05-20T21:23:24.966Z,43.55
2023-05-20T21:25:53.355Z,43.98
2023-05-20T21:28:21.895Z,43.89
2023-05-20T21:30:50.578Z,43.94
2023-05-20T21:33:19.182Z,44.06
2023-05-20T21:35:47.623Z,44.28
2023-05-20T21:38:17.479Z,44.19
2023-05-20T21:40:46.012Z,44.52
2023-05-20T21:43:14.445Z,44.26
2023-05-20T21:45:42.897Z,44.26
2023-05-20T21:48:11.352Z,44.69
2023-05-20T21:50:39.740Z,44.59
2023-05-20T21:53:08.182Z,44.82
2023-05-20T21:55:38.180Z,44.60
2023-05-20T21:58:06.858Z,45.06
2023-05-20T22:00:35.230Z,45.03
2023-05-20T22:03:03.711Z,44.92
2023-05-20T22:05:34.711Z,45.27
2023-05-20T22:08:03.340Z,45.26
2023-05-20T22:10:33.847Z,45.37
2023-05-20T22:13:03.658Z,45.46
2023-05-20T22:15:32.484Z,45.11
2023-05-20T22:18:04.224Z,45.23
2023-05-20T22:20:34.402Z,45.72
2023-05-20T22:23:04.687Z,45.54
2023-05-20T22:25:33.332Z,45.66
2023-05-20T22:28:04.604Z,46.12
2023-05-20T22:30:33.204Z,46.33
2023-05-20T22:33:01.660Z,45.76
2023-05-20T22:35:30.146Z,46.11
2023-05-20T22:38:00.241Z,46.01
2023-05-20T22:40:28.953Z,46.36
2023-05-20T22:42:57.402Z,46.06
2023-05-20T22:45:27.620Z,46.25
2023-05-20T22:47:56.137Z,46.49
2023-05-20T22:50:26.422Z,46.63
2023-05-20T22:52:55.005Z,46.28
2023-05-20T22:55:24.338Z,46.67
2023-05-20T22:57:52.786Z,46.74
2023-05-20T23:00:21.420Z,46.89
2023-05-20T23:02:52.565Z,46.86
2023-05-20T23:05:21.129Z,46.65
2023-05-20T23:07:52.695Z,46.86
2023-05-20T23:10:21.777Z,47.10
2023-05-20T23:12:50.182Z,46.77
2023-05-20T23:15:19.252Z,47.01
2023-05-20T23:17:49.448Z,46.80
2023-05-20T23:20:22.093Z,46.83
2023-05-20T23:22:50.688Z,46.74
2023-05-20T23:25:19.230Z,47.20
2023-05-20T23:27:47.643Z,47.27
2023-05-20T23:30:16.284Z,47.38
2023-05-20T23:32:45.384Z,47.03
2023-05-20T23:35:14.399Z,47.52
2023-05-20T23:37:44.166Z,47.50
2023-05-20T23:40:13.123Z,47.64
2023-05-20T23:42:41.499Z,47.24
2023-05-20T23:45:12.000Z,47.35
2023-05-20T23:47:40.495Z,47.59
2023-05-20T23:50:09.670Z,47.48
2023-05-20T23:52:38.066Z,47.69
2023-05-20T23:55:10.364Z,47.76
2023-05-20T23:57:38.780Z,47.94
